Time;durP1;ratioP1;P1;durP2;ratioP2;P2;SDS_P1;SDS_P2;PMS_P1;PMS_P2;Temp;Humidity;BMP_temperature;BMP_pressure;BME280_temperature;BME280_humidity;BME280_pressure;Samples;Min_cycle;Max_cycle;Signal;HPM_P1;HPM_P2
2021/11/21 00:04:50;;;;;;;22.73;13.60;;;;;;;8.87;91.69;98886.10;4086137;86;21138;-83
2021/11/21 00:10:52;;;;;;;22.93;13.50;;;;;;;8.83;91.76;98877.05;4086224;86;21051;-83
2021/11/21 00:16:56;;;;;;;25.52;12.13;;;;;;;8.83;91.78;98875.69;4085403;86;21738;-84
2021/11/21 00:22:56;;;;;;;17.95;11.10;;;;;;;8.78;91.77;98873.29;4079750;86;21063;-84
2021/11/21 00:28:57;;;;;;;18.55;10.23;;;;;;;8.75;92.01;98866.41;4085439;86;21126;-83
2021/11/21 00:34:59;;;;;;;13.78;9.90;;;;;;;8.74;91.71;98856.05;4088390;86;21079;-84
2021/11/21 00:41:01;;;;;;;14.65;9.15;;;;;;;8.74;91.70;98842.41;4085349;86;21605;-83
2021/11/21 00:47:03;;;;;;;16.05;9.43;;;;;;;8.69;91.66;98840.58;4086300;86;21098;-83
2021/11/21 00:53:04;;;;;;;15.00;9.53;;;;;;;8.64;91.62;98841.67;4053754;86;21173;-84
2021/11/21 00:59:05;;;;;;;17.65;9.33;;;;;;;8.64;91.68;98823.94;4046656;86;21047;-83
2021/11/21 01:05:10;;;;;;;16.50;10.30;;;;;;;8.64;91.79;98820.41;4052989;86;21041;-83
2021/11/21 01:11:11;;;;;;;15.60;9.55;;;;;;;8.61;91.47;98806.94;4042556;86;21056;-84
2021/11/21 01:17:13;;;;;;;13.10;8.60;;;;;;;8.60;91.65;98804.55;4053501;86;21080;-83
2021/11/21 01:23:17;;;;;;;13.05;9.80;;;;;;;8.52;91.60;98789.25;4061818;86;21791;-83
2021/11/21 01:29:18;;;;;;;16.70;9.40;;;;;;;8.48;91.59;98781.56;4091541;85;21015;-83
2021/11/21 01:35:20;;;;;;;12.07;8.40;;;;;;;8.43;91.49;98775.84;4065751;86;21043;-83
2021/11/21 01:41:22;;;;;;;12.85;8.45;;;;;;;8.43;91.60;98770.39;4064316;86;21052;-83
2021/11/21 01:47:23;;;;;;;11.08;6.58;;;;;;;8.38;91.49;98752.97;4215145;83;21060;-83
2021/11/21 01:53:24;;;;;;;12.05;7.35;;;;;;;8.31;91.41;98743.89;4206261;83;21072;-83
2021/11/21 01:59:26;;;;;;;7.97;5.25;;;;;;;8.18;91.48;98722.81;4211276;83;21070;-83
2021/11/21 02:05:28;;;;;;;8.35;5.45;;;;;;;8.09;91.45;98722.85;4211804;83;21041;-84
2021/11/21 02:11:29;;;;;;;8.65;5.95;;;;;;;8.08;91.41;98717.97;4217034;83;21104;-84
2021/11/21 02:17:30;;;;;;;10.10;7.45;;;;;;;8.14;91.10;98701.53;4216049;83;20991;-83
2021/11/21 02:23:32;;;;;;;11.35;8.58;;;;;;;8.21;91.14;98698.91;4214207;83;21082;-82
2021/11/21 02:29:33;;;;;;;12.65;8.78;;;;;;;8.28;91.00;98685.99;4212275;83;21074;-84
2021/11/21 02:35:41;;;;;;;14.47;9.35;;;;;;;8.34;90.71;98677.14;4212228;83;21015;-84
2021/11/21 02:41:43;;;;;;;10.78;7.22;;;;;;;8.37;90.43;98655.14;4219374;82;21169;-83
2021/11/21 02:47:44;;;;;;;10.30;6.47;;;;;;;8.36;90.54;98650.86;4212322;82;21037;-83
2021/11/21 02:53:46;;;;;;;9.55;5.83;;;;;;;8.29;90.37;98640.62;4216882;83;21018;-83
2021/11/21 02:59:49;;;;;;;12.60;5.95;;;;;;;8.19;90.38;98640.45;4211651;83;21065;-84
2021/11/21 03:05:50;;;;;;;7.80;5.50;;;;;;;8.13;90.29;98642.69;4216939;83;21539;-83
2021/11/21 03:11:53;;;;;;;9.70;6.58;;;;;;;8.14;90.34;98624.41;4211603;83;21031;-83
2021/11/21 03:17:56;;;;;;;8.38;5.95;;;;;;;8.11;90.28;98620.48;4212122;83;21094;-83
2021/11/21 03:23:57;;;;;;;10.90;6.87;;;;;;;8.07;90.28;98608.72;4213300;83;21073;-83
2021/11/21 03:29:58;;;;;;;10.23;6.42;;;;;;;7.97;90.12;98601.95;4222038;82;21035;-83
2021/11/21 03:36:00;;;;;;;10.65;6.45;;;;;;;7.82;90.21;98592.00;4221667;83;21131;-83
2021/11/21 03:42:03;;;;;;;9.58;6.40;;;;;;;7.67;90.16;98584.74;4221739;83;20991;-83
2021/11/21 03:48:05;;;;;;;16.57;8.43;;;;;;;7.47;90.30;98575.68;4224708;83;21542;-83
2021/11/21 03:54:06;;;;;;;11.20;7.25;;;;;;;7.20;89.93;98574.83;4220811;83;21507;-82
2021/11/21 04:00:13;;;;;;;11.95;8.08;;;;;;;7.03;90.15;98577.23;4225996;83;21050;-82
2021/11/21 04:06:15;;;;;;;15.95;9.43;;;;;;;6.82;90.47;98560.50;4216989;83;22229;-83
2021/11/21 04:12:16;;;;;;;13.18;8.30;;;;;;;6.62;90.44;98560.31;4219100;83;21106;-82
2021/11/21 04:18:18;;;;;;;14.23;8.75;;;;;;;6.42;90.55;98562.83;4151334;83;33103;-83
2021/11/21 04:24:20;;;;;;;14.38;8.80;;;;;;;6.18;90.52;98573.39;4135109;85;21089;-82
2021/11/21 04:30:21;;;;;;;11.12;7.47;;;;;;;5.94;90.70;98563.56;4126932;84;21005;-82
2021/11/21 04:36:23;;;;;;;11.33;7.45;;;;;;;5.73;90.67;98551.41;4120918;85;21048;-82
2021/11/21 04:42:24;;;;;;;12.23;8.05;;;;;;;5.52;91.03;98550.89;4123850;85;21052;-83
2021/11/21 04:48:26;;;;;;;14.15;8.13;;;;;;;5.33;91.01;98551.61;4120390;85;21049;-83
2021/11/21 04:54:27;;;;;;;10.85;7.30;;;;;;;5.19;91.33;98547.19;4080636;85;21377;-82
2021/11/21 05:00:29;;;;;;;15.88;9.13;;;;;;;5.04;91.30;98529.55;4074666;86;21175;-82
2021/11/21 05:06:31;;;;;;;16.93;9.35;;;;;;;4.88;91.49;98522.77;4071023;86;20986;-83
2021/11/21 05:12:32;;;;;;;16.27;8.23;;;;;;;4.70;91.21;98514.72;4182499;83;21074;-82
2021/11/21 05:18:33;;;;;;;17.30;8.95;;;;;;;4.55;91.62;98508.72;4200333;83;21077;-82
2021/11/21 05:24:35;;;;;;;13.13;6.90;;;;;;;4.42;91.68;98503.12;4188447;84;21053;-82
2021/11/21 05:30:37;;;;;;;20.00;8.75;;;;;;;4.45;92.57;98503.78;4193113;84;21016;-82
2021/11/21 05:36:39;;;;;;;15.20;8.50;;;;;;;4.41;92.18;98498.84;4187224;84;21003;-83
2021/11/21 05:42:41;;;;;;;16.67;8.98;;;;;;;4.38;92.62;98500.90;4185722;84;21876;-82
2021/11/21 05:48:43;;;;;;;12.68;7.37;;;;;;;4.34;92.50;98495.93;4186648;84;21054;-83
2021/11/21 05:54:44;;;;;;;12.45;8.48;;;;;;;4.22;92.44;98490.02;4184021;84;21066;-82
2021/11/21 06:00:47;;;;;;;12.90;8.48;;;;;;;4.12;92.85;98472.89;4187274;84;20978;-83
2021/11/21 06:06:49;;;;;;;12.78;7.10;;;;;;;4.14;93.25;98484.73;4187020;84;21078;-82
2021/11/21 06:12:50;;;;;;;13.28;7.15;;;;;;;4.15;93.64;98494.45;4187984;84;20985;-82
2021/11/21 06:18:51;;;;;;;13.25;7.58;;;;;;;4.10;93.14;98494.70;4185812;84;20991;-82
2021/11/21 06:24:53;;;;;;;13.85;7.00;;;;;;;3.98;93.13;98485.23;4184087;84;21057;-82
2021/11/21 06:30:55;;;;;;;11.22;6.65;;;;;;;3.91;93.09;98489.91;4184354;84;21062;-82
2021/11/21 06:36:56;;;;;;;13.28;7.60;;;;;;;3.87;93.70;98486.30;4185457;84;21495;-83
2021/11/21 06:42:58;;;;;;;12.95;6.60;;;;;;;3.84;93.58;98477.50;4186732;84;20995;-83
2021/11/21 06:49:00;;;;;;;12.10;6.10;;;;;;;3.78;93.37;98470.76;4184222;84;21014;-82
2021/11/21 06:55:05;;;;;;;9.03;5.60;;;;;;;3.77;94.23;98472.45;4187773;84;21975;-83
2021/11/21 07:01:06;;;;;;;9.80;6.40;;;;;;;3.93;93.74;98476.02;4186452;84;21129;-82
2021/11/21 07:07:09;;;;;;;8.25;5.67;;;;;;;3.92;94.78;98468.45;4186282;84;21684;-83
2021/11/21 07:13:11;;;;;;;21.23;9.43;;;;;;;4.09;95.25;98456.53;4183648;84;22240;-82
2021/11/21 07:19:13;;;;;;;18.85;8.53;;;;;;;4.08;95.09;98467.16;4186200;84;21070;-82
2021/11/21 07:25:19;;;;;;;21.27;10.82;;;;;;;4.25;95.39;98470.36;4185093;84;21906;-83
2021/11/21 07:31:21;;;;;;;23.22;13.58;;;;;;;4.58;95.97;98461.94;4186451;84;21038;-82
2021/11/21 07:37:22;;;;;;;28.52;16.37;;;;;;;5.21;96.77;98463.52;4186957;84;21501;-83
2021/11/21 07:43:25;;;;;;;25.48;15.20;;;;;;;5.31;94.65;98454.82;4186889;84;21038;-82
2021/11/21 07:49:27;;;;;;;24.60;14.87;;;;;;;5.17;95.21;98447.70;4183932;84;21423;-83
2021/11/21 07:55:33;;;;;;;21.42;12.40;;;;;;;5.49;94.70;98455.23;4185320;84;20999;-83
2021/11/21 08:01:35;;;;;;;30.55;17.67;;;;;;;5.86;95.93;98446.94;4186743;83;21089;-83
2021/11/21 08:07:37;;;;;;;34.43;19.15;;;;;;;6.62;96.64;98451.53;4187795;84;21059;-85
2021/11/21 08:13:40;;;;;;;28.90;16.62;;;;;;;7.19;95.69;98434.41;4185918;84;21692;-85
2021/11/21 08:19:41;;;;;;;28.75;16.40;;;;;;;7.87;95.34;98421.95;4185992;84;21519;-83
2021/11/21 08:25:44;;;;;;;23.00;12.90;;;;;;;8.72;95.26;98418.99;4187957;84;21570;-84
2021/11/21 08:31:47;;;;;;;17.65;11.12;;;;;;;9.50;94.25;98419.02;4188493;84;21551;-84
2021/11/21 08:37:48;;;;;;;17.48;11.78;;;;;;;9.95;93.30;98416.31;4181056;84;21082;-85
2021/11/21 08:43:49;;;;;;;20.40;12.03;;;;;;;10.25;92.45;98414.91;4187004;84;21074;-84
2021/11/21 08:49:51;;;;;;;20.00;12.47;;;;;;;11.04;92.12;98407.77;4186188;84;21058;-84
2021/11/21 08:55:53;;;;;;;16.73;11.85;;;;;;;11.74;91.40;98423.37;4187476;84;21094;-84
2021/11/21 09:01:54;;;;;;;17.87;11.63;;;;;;;12.15;90.33;98414.20;4184531;84;21661;-84
2021/11/21 09:08:08;;;;;;;16.10;10.80;;;;;;;12.70;89.56;98408.04;4193909;84;21099;-84
2021/11/21 09:14:10;;;;;;;15.32;10.72;;;;;;;13.13;87.60;98404.59;4186421;84;21127;-83
2021/11/21 09:20:13;;;;;;;14.50;10.28;;;;;;;13.60;87.34;98391.38;4187905;84;21062;-83
2021/11/21 09:26:15;;;;;;;14.43;9.10;;;;;;;13.96;86.04;98382.92;4218978;82;21101;-84
2021/11/21 09:32:17;;;;;;;15.70;9.50;;;;;;;14.35;84.85;98365.91;4220794;83;21903;-84
2021/11/21 09:38:33;;;;;;;12.58;9.73;;;;;;;14.87;84.77;98370.45;4217781;83;21077;-84
2021/11/21 09:44:34;;;;;;;18.48;8.70;;;;;;;15.05;82.65;98362.07;4191668;83;21641;-85
2021/11/21 09:50:40;;;;;;;12.88;8.78;;;;;;;13.93;80.88;98354.84;4191554;83;21049;-83
2021/11/21 09:56:43;;;;;;;13.65;9.88;;;;;;;13.50;80.61;98346.13;4179843;83;21105;-83
2021/11/21 10:02:49;;;;;;;16.50;11.00;;;;;;;13.04;79.72;98344.42;4197311;83;21025;-83
2021/11/21 10:08:51;;;;;;;15.18;10.95;;;;;;;12.48;79.79;98336.02;4198985;82;21101;-84
2021/11/21 10:15:03;;;;;;;16.73;11.03;;;;;;;12.58;80.07;98327.70;4192753;83;21558;-84
2021/11/21 10:21:09;;;;;;;15.50;10.72;;;;;;;12.39;79.27;98324.69;4190330;83;21042;-83
2021/11/21 10:27:16;;;;;;;16.33;10.07;;;;;;;12.07;79.14;98327.66;4187074;83;21094;-83
2021/11/21 10:33:23;;;;;;;16.67;10.48;;;;;;;12.27;79.52;98325.17;4197615;83;21050;-83
2021/11/21 10:39:46;;;;;;;13.80;9.57;;;;;;;12.29;78.82;98324.95;4196135;83;21010;-84
2021/11/21 10:46:20;;;;;;;17.32;10.60;;;;;;;12.21;78.76;98316.59;4195005;83;21640;-83
2021/11/21 10:52:23;;;;;;;20.12;11.40;;;;;;;12.44;78.73;98305.84;4119177;85;21031;-83
2021/11/21 10:58:24;;;;;;;15.98;9.95;;;;;;;12.19;78.13;98300.33;4128985;85;21084;-84
2021/11/21 11:04:26;;;;;;;18.27;10.30;;;;;;;12.14;77.99;98285.08;4123914;85;21103;-83
2021/11/21 11:10:39;;;;;;;14.87;9.60;;;;;;;11.87;77.60;98282.68;4136984;85;21039;-84
2021/11/21 11:16:42;;;;;;;15.05;9.45;;;;;;;11.54;77.71;98279.08;4179860;83;21022;-84
2021/11/21 11:22:44;;;;;;;14.07;9.68;;;;;;;11.58;78.04;98274.39;4198785;83;21094;-83
2021/11/21 11:28:53;;;;;;;15.23;9.95;;;;;;;11.49;77.24;98271.87;4207267;83;21010;-83
2021/11/21 11:34:58;;;;;;;16.10;10.72;;;;;;;11.16;77.60;98264.16;4204967;83;21039;-83
2021/11/21 11:41:04;;;;;;;17.37;10.35;;;;;;;11.03;77.34;98260.48;4204352;83;21073;-82
2021/11/21 11:47:23;;;;;;;15.40;9.65;;;;;;;11.02;77.59;98260.27;4202059;83;21093;-83
2021/11/21 11:53:52;;;;;;;13.95;8.93;;;;;;;10.90;77.16;98253.06;4203314;83;21022;-84
2021/11/21 11:59:59;;;;;;;18.15;10.98;;;;;;;10.69;77.35;98247.64;4202855;83;21046;-84
2021/11/21 12:06:05;;;;;;;15.98;11.18;;;;;;;10.56;77.41;98233.58;4200200;83;21042;-84
2021/11/21 12:12:29;;;;;;;21.07;12.50;;;;;;;10.43;77.25;98241.98;4204968;83;21041;-83
2021/11/21 12:19:01;;;;;;;24.80;14.10;;;;;;;10.36;77.44;98243.37;4207301;83;21049;-83
2021/11/21 12:25:08;;;;;;;17.60;11.28;;;;;;;10.39;77.61;98236.32;4215639;83;21093;-84
2021/11/21 12:31:42;;;;;;;18.90;13.37;;;;;;;10.43;77.40;98238.48;4218129;83;21082;-84
2021/11/21 12:37:46;;;;;;;16.37;9.63;;;;;;;10.41;77.63;98240.25;4212493;83;20997;-84
2021/11/21 12:43:49;;;;;;;16.73;10.25;;;;;;;10.40;77.40;98241.40;4218010;83;21030;-83
2021/11/21 12:49:52;;;;;;;15.58;9.18;;;;;;;10.33;77.37;98247.46;4194614;83;21578;-83
2021/11/21 12:56:02;;;;;;;13.18;8.93;;;;;;;10.33;77.47;98243.36;4219603;83;21009;-83
2021/11/21 13:02:04;;;;;;;18.17;10.85;;;;;;;10.29;77.37;98248.06;4218115;83;21065;-84
2021/11/21 13:08:17;;;;;;;16.20;10.08;;;;;;;10.23;77.39;98242.76;4217824;83;21791;-84
2021/11/21 13:14:18;;;;;;;17.87;10.10;;;;;;;10.07;77.35;98242.34;4217022;83;21018;-83
2021/11/21 13:20:23;;;;;;;15.03;9.48;;;;;;;9.92;77.42;98239.38;4216498;83;21591;-84
2021/11/21 13:26:24;;;;;;;14.87;9.38;;;;;;;9.75;77.46;98242.86;4197830;83;21096;-85
2021/11/21 13:32:26;;;;;;;15.58;9.80;;;;;;;9.67;77.56;98245.38;4193109;83;21029;-83
2021/11/21 13:38:30;;;;;;;15.15;8.15;;;;;;;9.61;77.59;98239.52;4194136;83;21070;-84
2021/11/21 13:44:37;;;;;;;15.72;9.73;;;;;;;9.60;77.82;98244.01;4196109;82;21706;-83
2021/11/21 13:50:39;;;;;;;15.05;9.15;;;;;;;9.55;77.79;98250.63;4191583;83;21078;-83
2021/11/21 13:56:44;;;;;;;15.90;9.90;;;;;;;9.50;77.81;98244.17;4190010;83;21006;-83
2021/11/21 14:02:48;;;;;;;18.15;9.40;;;;;;;9.44;77.91;98261.50;4193648;83;21034;-83
2021/11/21 14:08:54;;;;;;;15.45;9.55;;;;;;;9.34;78.00;98256.00;4094548;85;21055;-83
2021/11/21 14:15:10;;;;;;;17.75;10.60;;;;;;;9.20;77.96;98261.41;4040351;86;21087;-83
2021/11/21 14:21:16;;;;;;;25.35;14.90;;;;;;;9.06;78.09;98268.95;4099447;85;21596;-83
2021/11/21 14:27:23;;;;;;;25.33;16.70;;;;;;;8.97;78.29;98271.22;4122203;85;21626;-82
2021/11/21 14:33:29;;;;;;;20.37;12.55;;;;;;;8.90;78.42;98272.55;4121185;84;21047;-83
2021/11/21 14:39:30;;;;;;;16.93;11.03;;;;;;;8.88;78.52;98272.75;4123466;85;21024;-84
2021/11/21 14:45:34;;;;;;;16.93;10.08;;;;;;;8.89;78.81;98278.40;4045314;86;21740;-83
2021/11/21 14:51:39;;;;;;;20.90;12.28;;;;;;;8.84;79.13;98269.98;4070626;86;21079;-84
2021/11/21 14:57:56;;;;;;;21.02;11.95;;;;;;;8.84;79.00;98276.02;4072256;86;21115;-82
2021/11/21 15:03:52;;;;;;;18.98;11.57;;;;;;;8.75;79.21;98285.92;4071569;86;20996;-83
2021/11/21 15:09:54;;;;;;;17.87;10.82;;;;;;;8.73;79.41;98295.05;4071853;86;21111;-83
2021/11/21 15:15:56;;;;;;;16.10;10.30;;;;;;;8.66;79.45;98290.90;4070392;86;21040;-83
2021/11/21 15:21:58;;;;;;;21.70;11.63;;;;;;;8.67;79.98;98295.22;4056570;86;21011;-83
2021/11/21 15:28:19;;;;;;;17.50;11.63;;;;;;;8.63;79.84;98294.98;4063667;86;21063;-83
2021/11/21 15:34:20;;;;;;;23.42;14.15;;;;;;;8.57;80.04;98300.56;4043381;86;21069;-83
2021/11/21 15:40:25;;;;;;;26.95;16.05;;;;;;;8.55;80.26;98304.28;4201218;83;21554;-83
2021/11/21 15:46:27;;;;;;;28.52;17.77;;;;;;;8.53;80.41;98309.31;4106739;85;21095;-83
2021/11/21 15:52:28;;;;;;;33.33;20.02;;;;;;;8.52;80.20;98318.07;4198872;83;21118;-84
2021/11/21 15:58:30;;;;;;;37.38;20.60;;;;;;;8.54;80.54;98325.30;4196395;83;21019;-83
2021/11/21 16:04:52;;;;;;;41.15;21.23;;;;;;;8.55;80.49;98326.09;4105880;85;21071;-83
2021/11/21 16:10:54;;;;;;;40.40;21.62;;;;;;;8.54;80.57;98340.31;4200050;83;21077;-82
2021/11/21 16:17:00;;;;;;;39.13;22.50;;;;;;;8.52;80.72;98338.53;4194525;82;21027;-83
2021/11/21 16:23:01;;;;;;;41.73;24.43;;;;;;;8.48;80.78;98340.45;4199254;83;21067;-83
2021/11/21 16:29:03;;;;;;;41.55;25.08;;;;;;;8.47;80.65;98346.29;4189192;83;21030;-83
2021/11/21 16:35:07;;;;;;;38.63;23.57;;;;;;;8.43;80.86;98351.70;4193568;83;21018;-83
2021/11/21 16:41:09;;;;;;;40.85;23.52;;;;;;;8.41;80.84;98359.47;4064764;86;21083;-83
2021/11/21 16:47:12;;;;;;;38.05;22.82;;;;;;;8.38;80.96;98357.49;4032551;87;21084;-83
2021/11/21 16:53:13;;;;;;;34.83;20.72;;;;;;;8.35;80.84;98367.80;4047676;86;21068;-85
2021/11/21 16:59:17;;;;;;;30.70;19.45;;;;;;;8.31;80.81;98377.09;4011942;87;21004;-84
2021/11/21 17:05:20;;;;;;;34.08;20.35;;;;;;;8.28;80.91;98376.48;4049092;86;21576;-82
2021/11/21 17:11:22;;;;;;;30.32;19.40;;;;;;;8.28;80.98;98383.30;4048833;86;21089;-83
2021/11/21 17:17:24;;;;;;;31.70;19.42;;;;;;;8.28;81.00;98388.76;4034187;87;21605;-84
2021/11/21 17:30:08;;;;;;;32.42;19.55;;;;;;;8.23;81.06;98391.25;4103993;85;21064;-83
2021/11/21 17:36:10;;;;;;;39.55;23.77;;;;;;;8.15;81.44;98402.41;4052251;86;21068;-83
2021/11/21 17:42:41;;;;;;;38.98;22.75;;;;;;;8.16;81.25;98412.94;4052444;86;21034;-83
2021/11/21 17:48:44;;;;;;;44.25;25.27;;;;;;;8.14;81.34;98416.63;4053470;86;21006;-83
2021/11/21 17:54:46;;;;;;;41.00;23.38;;;;;;;8.11;81.25;98416.59;4036883;87;21627;-83
2021/11/21 18:07:24;;;;;;;43.87;26.35;;;;;;;8.03;81.30;98436.94;3938885;86;9999845;-83
2021/11/21 18:13:27;;;;;;;46.88;26.20;;;;;;;7.95;81.28;98442.09;4050378;86;21079;-83
2021/11/21 18:19:28;;;;;;;44.05;24.37;;;;;;;7.87;81.31;98445.11;4061471;86;21716;-83
2021/11/21 18:25:30;;;;;;;38.55;21.95;;;;;;;7.84;81.58;98452.66;4061403;86;21045;-82
2021/11/21 18:31:32;;;;;;;41.55;24.10;;;;;;;7.84;81.55;98449.94;4063212;86;21511;-82
2021/11/21 18:37:33;;;;;;;43.23;25.40;;;;;;;7.81;81.59;98443.27;4064696;86;21149;-83
2021/11/21 18:43:49;;;;;;;41.85;25.70;;;;;;;7.78;81.64;98454.14;4066057;86;21451;-83
2021/11/21 18:49:52;;;;;;;44.30;26.95;;;;;;;7.77;81.71;98464.81;4060595;86;21512;-82
2021/11/21 19:03:06;;;;;;;39.27;23.07;;;;;;;7.66;81.80;98466.61;4064472;88;21449;-83
2021/11/21 19:09:10;;;;;;;41.65;24.35;;;;;;;7.65;82.05;98469.92;4061582;86;21036;-83
2021/11/21 19:15:14;;;;;;;37.88;23.07;;;;;;;7.62;82.30;98469.30;4085938;85;21470;-83
2021/11/21 19:21:16;;;;;;;43.05;25.25;;;;;;;7.63;82.34;98475.52;4050793;86;21427;-82
2021/11/21 19:27:19;;;;;;;45.63;26.10;;;;;;;7.64;82.43;98478.47;4054447;86;21469;-85
2021/11/21 19:33:22;;;;;;;44.83;24.60;;;;;;;7.62;82.53;98487.01;4223952;82;85860;-83
2021/11/21 19:39:25;;;;;;;47.55;26.45;;;;;;;7.63;82.69;98489.14;4273680;82;21450;-83
2021/11/21 19:45:30;;;;;;;44.25;26.27;;;;;;;7.60;82.71;98489.31;4257308;82;21402;-83
2021/11/21 19:58:25;;;;;;;46.98;26.25;;;;;;;7.53;82.67;98494.63;4278420;83;21478;-83
2021/11/21 20:04:27;;;;;;;47.88;26.48;;;;;;;7.53;82.72;98499.31;4145331;82;10000472;-83
2021/11/21 20:10:33;;;;;;;45.73;25.23;;;;;;;7.50;82.87;98498.09;4274684;83;21019;-83
2021/11/21 20:16:35;;;;;;;40.28;24.50;;;;;;;7.44;83.26;98503.65;4267434;82;21519;-84
2021/11/21 20:29:41;;;;;;;51.65;27.02;;;;;;;7.40;83.36;98513.71;4237479;82;20987;-83
2021/11/21 20:35:43;;;;;;;49.48;27.67;;;;;;;7.39;83.11;98508.63;4222879;82;21876;-83
2021/11/21 20:41:44;;;;;;;49.20;27.17;;;;;;;7.35;83.30;98521.39;4229295;82;22021;-84
2021/11/21 20:47:49;;;;;;;47.20;27.32;;;;;;;7.33;83.16;98529.92;4243003;82;20987;-82
2021/11/21 20:53:51;;;;;;;54.60;29.40;;;;;;;7.32;83.47;98533.80;4230984;82;20982;-82
2021/11/21 20:59:52;;;;;;;59.83;30.08;;;;;;;7.32;83.26;98535.73;4233828;82;21007;-82
2021/11/21 21:05:54;;;;;;;60.43;31.20;;;;;;;7.27;83.37;98538.75;4229710;82;21904;-83
2021/11/21 21:11:56;;;;;;;50.70;27.70;;;;;;;7.23;83.34;98541.44;4224005;82;21664;-83
2021/11/21 21:18:04;;;;;;;53.85;28.90;;;;;;;7.22;83.63;98554.05;4241837;84;20949;-83
2021/11/21 21:24:07;;;;;;;59.35;29.57;;;;;;;7.24;83.84;98558.54;4242772;82;21017;-83
2021/11/21 21:30:09;;;;;;;58.52;29.98;;;;;;;7.20;83.65;98563.95;4175338;84;21002;-83
2021/11/21 21:36:45;;;;;;;53.70;29.60;;;;;;;7.14;83.71;98564.61;4272188;82;21000;-83
2021/11/21 21:42:47;;;;;;;50.73;27.90;;;;;;;7.07;84.07;98561.74;4273747;82;21040;-83
2021/11/21 21:48:48;;;;;;;56.53;28.83;;;;;;;7.00;84.33;98552.11;4264319;82;21017;-83
2021/11/21 21:54:50;;;;;;;52.30;29.32;;;;;;;7.03;84.73;98558.19;4274839;82;21019;-82
2021/11/21 22:00:52;;;;;;;52.48;28.67;;;;;;;7.04;84.71;98562.47;4266386;82;21063;-84
2021/11/21 22:06:55;;;;;;;55.83;29.77;;;;;;;7.01;84.68;98562.63;4269080;82;21096;-82
2021/11/21 22:12:59;;;;;;;57.23;30.88;;;;;;;6.99;84.76;98564.91;4264181;82;21421;-83
2021/11/21 22:19:00;;;;;;;55.12;31.12;;;;;;;7.02;84.73;98566.91;4265882;82;21539;-83
2021/11/21 22:25:07;;;;;;;58.73;30.00;;;;;;;7.04;84.62;98565.98;4260296;82;21086;-83
2021/11/21 22:31:08;;;;;;;55.48;29.45;;;;;;;7.04;84.81;98561.11;4271686;82;21080;-83
2021/11/21 22:37:11;;;;;;;57.10;30.77;;;;;;;6.95;84.70;98564.64;4273080;82;21043;-83
2021/11/21 22:43:13;;;;;;;55.20;30.37;;;;;;;6.97;85.02;98575.37;4238476;82;21054;-83
2021/11/21 22:49:15;;;;;;;53.58;28.73;;;;;;;7.00;85.40;98567.84;4273124;82;21089;-83
2021/11/21 22:55:18;;;;;;;55.78;30.25;;;;;;;6.95;84.90;98570.88;4266711;82;21654;-83
2021/11/21 23:01:19;;;;;;;64.20;32.33;;;;;;;6.81;85.04;98569.82;4264613;82;21069;-83
2021/11/21 23:07:22;;;;;;;55.78;29.37;;;;;;;6.81;85.30;98576.06;4273314;82;20991;-83
2021/11/21 23:13:27;;;;;;;62.60;31.82;;;;;;;6.85;85.55;98578.82;4268231;82;21018;-83
2021/11/21 23:19:28;;;;;;;54.95;30.32;;;;;;;6.86;85.73;98588.58;4265644;82;21035;-83
2021/11/21 23:25:33;;;;;;;62.20;33.73;;;;;;;6.89;85.52;98589.22;4210473;83;21491;-82
2021/11/21 23:31:34;;;;;;;72.20;34.67;;;;;;;6.74;85.80;98592.79;4205268;83;21043;-84
2021/11/21 23:37:37;;;;;;;60.12;31.57;;;;;;;6.74;85.89;98605.03;4208183;83;20996;-83
2021/11/21 23:43:38;;;;;;;69.20;34.73;;;;;;;6.69;86.19;98596.59;4215004;83;21084;-84
2021/11/21 23:49:39;;;;;;;76.70;37.95;;;;;;;6.75;86.31;98599.23;4181169;84;21108;-83
2021/11/21 23:55:41;;;;;;;66.17;33.90;;;;;;;6.72;86.14;98598.59;4181853;84;21041;-83
